Goianira, Brazil
Current Conditions -  °F | °C
As of 1:00 PM on Friday 19 Dec 2014 (Local Time) from SBGO Reporting Station
Broken Clouds Broken Clouds  
Wind Chill: 84°   Ceiling: 3000
Heat Index: 86°   Visibility: 6mi
Dew Point: 66°   Wind: 15mph
Humidity: 55%   Direction: 340°NNW
Pressure: 29.91"   Gusts: NA
Location:  16.5°S, 49.43°W
Report Text: SBGO 191500Z 34013KT 9999 BKN030 FEW035TCU 29/19 Q1013
Loading
Personal Weather Stations






























Interactive Weather Map New forecast layout! Learn more

10-Day Weather Forecast

Advertisements
Track Severe Weather on mobile